TimeEDT,TemperatureF,Dew PointF,Humidity,Sea Level PressureIn,VisibilityMPH,Wind Direction,Wind SpeedMPH,Gust SpeedMPH,PrecipitationIn,Events,Conditions,WindDirDegrees,DateUTC
12:56 AM,54.0,46.0,75,30.12,10.0,Calm,Calm,-,N/A,,Mostly Cloudy,0,2013-10-16 04:56:00
1:56 AM,53.1,48.0,83,30.11,10.0,NNW,4.6,-,N/A,,Mostly Cloudy,330,2013-10-16 05:56:00
2:56 AM,54.0,50.0,86,30.10,10.0,Calm,Calm,-,N/A,,Partly Cloudy,0,2013-10-16 06:56:00
3:56 AM,54.0,50.0,86,30.09,10.0,NE,4.6,-,N/A,,Mostly Cloudy,50,2013-10-16 07:56:00
4:22 AM,53.6,50.0,88,30.09,10.0,ENE,4.6,-,N/A,,Partly Cloudy,60,2013-10-16 08:22:00
4:56 AM,53.1,48.9,86,30.08,10.0,NE,3.5,-,N/A,,Clear,40,2013-10-16 08:56:00
5:56 AM,52.0,48.9,89,30.10,10.0,Calm,Calm,-,N/A,,Scattered Clouds,0,2013-10-16 09:56:00
6:56 AM,54.0,48.0,80,30.09,10.0,NE,4.6,-,N/A,,Mostly Cloudy,40,2013-10-16 10:56:00
7:56 AM,54.0,48.9,83,30.08,10.0,ENE,4.6,-,N/A,,Mostly Cloudy,60,2013-10-16 11:56:00
8:56 AM,54.0,50.0,86,30.07,8.0,Variable,3.5,-,0.00,,Light Drizzle,0,2013-10-16 12:56:00
9:56 AM,57.0,51.1,81,30.07,10.0,Calm,Calm,-,0.00,,Mostly Cloudy,0,2013-10-16 13:56:00
10:56 AM,57.0,51.1,81,30.08,10.0,NW,5.8,-,N/A,,Overcast,310,2013-10-16 14:56:00
11:56 AM,59.0,52.0,78,30.05,10.0,Calm,Calm,-,N/A,,Mostly Cloudy,0,2013-10-16 15:56:00
12:56 PM,62.1,51.1,67,30.02,10.0,Calm,Calm,-,N/A,,Overcast,0,2013-10-16 16:56:00
1:56 PM,62.1,52.0,70,30.00,10.0,Variable,3.5,-,N/A,,Mostly Cloudy,0,2013-10-16 17:56:00
2:56 PM,63.0,53.1,70,29.98,10.0,Calm,Calm,-,N/A,,Mostly Cloudy,0,2013-10-16 18:56:00
3:56 PM,63.0,53.1,70,29.98,10.0,Calm,Calm,-,N/A,,Mostly Cloudy,0,2013-10-16 19:56:00
4:56 PM,62.1,54.0,75,29.98,10.0,Calm,Calm,-,N/A,,Mostly Cloudy,0,2013-10-16 20:56:00
5:56 PM,61.0,53.1,75,29.97,10.0,Calm,Calm,-,N/A,,Mostly Cloudy,0,2013-10-16 21:56:00
6:56 PM,57.9,53.1,84,29.95,10.0,East,3.5,-,N/A,,Scattered Clouds,100,2013-10-16 22:56:00
7:56 PM,57.0,54.0,89,29.96,10.0,Calm,Calm,-,N/A,,Scattered Clouds,0,2013-10-16 23:56:00
8:56 PM,59.0,55.0,87,29.95,10.0,Calm,Calm,-,N/A,,Overcast,0,2013-10-17 00:56:00
9:35 PM,59.0,55.4,88,29.95,10.0,SSE,3.5,-,N/A,,Overcast,160,2013-10-17 01:35:00
9:56 PM,59.0,55.9,90,29.95,10.0,South,3.5,-,N/A,,Overcast,170,2013-10-17 01:56:00
10:56 PM,60.1,57.9,93,29.94,6.0,South,5.8,-,N/A,,Mist,170,2013-10-17 02:56:00
11:56 PM,60.1,57.9,93,29.92,6.0,Calm,Calm,-,N/A,,Mist,0,2013-10-17 03:56:00